Perdido, AL (36562)

9:53 PM CDT on July 28, 2014 (GMT -0500)
Chalet Ridge (KALBAYMI2) Elev 285 ft | 30.89 °N, 87.74 °W | Change Station

Current weather conditions updated 1 second ago

Partly Cloudy
Partly Cloudy
77.4 °F
Feels Like 79 °F
N
0.0
Wind Variable Wind from North
Gusts 0.0 mph

Tomorrow is forecast to be Cooler than today.

Today
High -- | Low -- °F
--% Chance of Precip.
Yesterday
High -- | Low -- °F
Precip. -- in
6:05 AM 7:48 PM
Waxing Crescent, 4% visible
Pressure 29.98 in
Visibility 10.0 miles
Clouds Few 9500 ft
Heat Index 79 °F
Dew Point 74 °F
Humidity 88%
Rainfall 0.04 in
Snow Depth Not available.
UV 0 out of 12
Pollen 4.10 out of 12
Air Quality Not available.
Flu Activity Not available.
METAR KBFM 290153Z 00000KT 10SM FEW095 27/24 A2998 RMK AO2 LTG DSNT E AND SE RAB08E18 TSE26 SLP151 VCSH S P0000 T02720239

More Conditions Fewer Conditions

Pressure 29.98 in
Visibility 10.0 miles
Clouds Few 9500 ft
Heat Index 79 °F
Dew Point 74 °F
Humidity 88%
Rainfall 0.04 in
Snow Depth Not available.
UV 0 out of 12
Pollen 4.10 out of 12
Air Quality Not available.
Flu Activity Not available.
METAR KBFM 290153Z 00000KT 10SM FEW095 27/24 A2998 RMK AO2 LTG DSNT E AND SE RAB08E18 TSE26 SLP151 VCSH S P0000 T02720239

More Conditions Fewer Conditions

10-Day Weather Forecast

Almanac

Astronomy

Jul. 28, 2014 Rise Set
Actual Time 6:05 AM CDT 7:48 PM CDT
Civil Twilight 5:38 AM CDT 8:15 PM CDT
Nautical Twilight 5:06 AM CDT 8:46 PM CDT
Astronomical Twilight 4:33 AM CDT 9:20 PM CDT
Moon 7:36 AM CDT (7/28) 8:42 PM CDT (7/28)
Length of Visible Light 14h 36m
Length of Day
13h 43m
Tomorrow will be 1m 20s shorter.
Waxing Crescent, 4% of the Moon is Illuminated
Today
Waxing Crescent
Aug 3
First Quarter
Aug 10
Full
Aug 17
Last Quarter
Aug 25
New

Today's Extremes

State Highs State Lows

Community

WunderPhotos

Upload Photos

1,738,587 photos uploaded!

Nearby

Snow Depth

Station Depth Elevation
No new snow has been reported.

Earthquake Activity

City Distance Mag. Time & Date
No recent earthquake activity has been reported nearby.
Minimum magnitude displayed is 2.5.

Coastal Water Temperatures

Place Temperature
Mobile State Docks, AL 86.0 °F
Coast Guard Sector Mobile, AL 84.9 °F

Nearby Weather Stations

Station Location Temp. Heat Index Dew Point Humidity Wind Precip. Elev Updated Type
MesoWest PERDIDO RIV FARMS , Atmore, AL 76 °F 76 °F 74 °F 93% WSW  at  2 mph 0.00 in / hr 298 ft 8:00 PM CDT MADIS
Chalet Ridge, Bay Minette, AL 77.4 °F 79 °F 74 °F 88% North  at  0.0 mph 0.00 in / hr 285 ft 9:53 PM CDT Rapid Fire
B.E.C., Atmore, AL 75.0 °F 73 °F 74 °F 97% WSW  at  4.0 mph 0.00 in / hr 272 ft 9:41 PM CDT Normal
South Century, Upton Rd area, Century, FL 74.5 °F 71 °F 74 °F 99% North  at  0.0 mph 0.00 in / hr 131 ft 9:44 PM CDT Normal

Show More Stations Show Fewer Stations